Time;durP1;ratioP1;P1;durP2;ratioP2;P2;SDS_P1;SDS_P2;PMS_P1;PMS_P2;Temp;Humidity;BMP_temperature;BMP_pressure;BME280_temperature;BME280_humidity;BME280_pressure;Samples;Min_cycle;Max_cycle;Signal;HPM_P1;HPM_P2
2023/12/10 00:01:42;;;;;;;;;;;7.30;99.90;;;;;;5107767;28;19947;-69
2023/12/10 00:04:08;;;;;;;;;;;7.30;99.90;;;;;;5118810;27;19958;-69
2023/12/10 00:06:33;;;;;;;;;;;7.30;99.90;;;;;;5128059;27;19985;-68
2023/12/10 00:08:59;;;;;;;;;;;7.30;99.90;;;;;;5117299;27;19912;-69
2023/12/10 00:11:24;;;;;;;;;;;7.30;99.90;;;;;;5107621;27;19918;-69
2023/12/10 00:13:50;;;;;;;;;;;7.40;99.90;;;;;;5107167;28;19924;-68
2023/12/10 00:16:15;;;;;;;;;;;7.30;99.90;;;;;;5107503;28;19908;-68
2023/12/10 00:18:41;;;;;;;;;;;7.30;99.90;;;;;;5107542;28;20016;-68
2023/12/10 00:21:06;;;;;;;;;;;7.30;99.90;;;;;;5107063;28;19922;-68
2023/12/10 00:23:32;;;;;;;;;;;7.30;99.90;;;;;;5107477;28;19915;-68
2023/12/10 00:25:58;;;;;;;;;;;7.30;99.90;;;;;;5106640;28;20389;-68
2023/12/10 00:28:23;;;;;;;;;;;7.30;99.90;;;;;;5112177;27;19919;-69
2023/12/10 00:30:49;;;;;;;;;;;7.40;99.90;;;;;;5110116;27;19912;-69
2023/12/10 00:33:15;;;;;;;;;;;7.40;99.90;;;;;;5107161;27;19988;-69
2023/12/10 00:35:41;;;;;;;;;;;7.30;99.90;;;;;;5105581;28;19927;-68
2023/12/10 00:38:06;;;;;;;;;;;7.40;99.90;;;;;;5106962;28;19916;-69
2023/12/10 00:40:32;;;;;;;;;;;7.30;99.90;;;;;;5107083;28;19911;-69
2023/12/10 00:42:58;;;;;;;;;;;7.30;99.90;;;;;;5105854;27;19919;-69
2023/12/10 00:45:23;;;;;;;;;;;7.30;99.90;;;;;;5113598;27;19964;-68
2023/12/10 00:47:49;;;;;;;;;;;7.30;99.90;;;;;;5115199;27;19946;-69
2023/12/10 00:50:14;;;;;;;;;;;7.30;99.90;;;;;;5116475;27;19942;-69
2023/12/10 00:52:40;;;;;;;;;;;7.30;99.90;;;;;;5116743;27;20006;-68
2023/12/10 00:55:06;;;;;;;;;;;7.30;99.90;;;;;;5124119;27;19908;-68
2023/12/10 00:57:32;;;;;;;;;;;7.40;99.90;;;;;;5106437;28;19916;-68
2023/12/10 00:59:58;;;;;;;;;;;7.40;99.90;;;;;;5105967;28;19933;-68
2023/12/10 01:02:24;;;;;;;;;;;7.30;99.90;;;;;;5106265;28;19916;-68
2023/12/10 01:04:50;;;;;;;;;;;7.40;99.90;;;;;;5106228;28;20352;-68
2023/12/10 01:07:16;;;;;;;;;;;7.40;99.90;;;;;;5106163;28;20275;-69
2023/12/10 01:09:42;;;;;;;;;;;7.40;99.90;;;;;;5114037;27;19915;-68
2023/12/10 01:12:07;;;;;;;;;;;7.40;99.90;;;;;;5106809;27;19956;-68
2023/12/10 01:14:33;;;;;;;;;;;7.30;99.90;;;;;;5106036;28;19960;-69
2023/12/10 01:16:59;;;;;;;;;;;7.40;99.90;;;;;;5105714;28;19916;-68
2023/12/10 01:19:26;;;;;;;;;;;7.40;99.90;;;;;;5112891;27;19908;-69
2023/12/10 01:21:51;;;;;;;;;;;7.40;99.90;;;;;;5104335;28;20293;-68
2023/12/10 01:24:19;;;;;;;;;;;7.40;99.90;;;;;;5106568;27;19919;-69
2023/12/10 01:26:44;;;;;;;;;;;7.40;99.90;;;;;;5105821;28;20974;-68
2023/12/10 01:29:10;;;;;;;;;;;7.40;99.90;;;;;;5102430;27;20014;-69
2023/12/10 01:31:35;;;;;;;;;;;7.40;99.90;;;;;;5105830;28;20272;-68
2023/12/10 01:34:02;;;;;;;;;;;7.40;99.90;;;;;;5105753;28;19962;-69
2023/12/10 01:36:27;;;;;;;;;;;7.40;99.90;;;;;;5104155;28;20680;-68
2023/12/10 01:38:53;;;;;;;;;;;7.40;99.90;;;;;;5105732;28;19911;-68
2023/12/10 01:41:18;;;;;;;;;;;7.50;99.90;;;;;;5106004;27;20280;-68
2023/12/10 01:43:44;;;;;;;;;;;7.40;99.90;;;;;;5112847;27;19962;-68
2023/12/10 01:46:10;;;;;;;;;;;7.50;99.90;;;;;;5103599;28;19916;-68
2023/12/10 01:48:37;;;;;;;;;;;7.50;99.90;;;;;;5105852;28;19942;-68
2023/12/10 01:51:03;;;;;;;;;;;7.40;99.90;;;;;;5105233;28;19916;-68
2023/12/10 01:53:28;;;;;;;;;;;7.40;99.90;;;;;;5105856;28;19923;-68
2023/12/10 01:55:54;;;;;;;;;;;7.50;99.90;;;;;;5105005;28;19908;-69
2023/12/10 01:58:20;;;;;;;;;;;7.40;99.90;;;;;;5118425;27;19908;-68
2023/12/10 02:00:45;;;;;;;;;;;7.50;99.90;;;;;;5118274;27;19911;-69
2023/12/10 02:03:11;;;;;;;;;;;7.40;99.90;;;;;;5125124;27;19915;-68
2023/12/10 02:05:36;;;;;;;;;;;7.40;99.90;;;;;;5117041;27;19911;-68
2023/12/10 02:08:02;;;;;;;;;;;7.50;99.90;;;;;;5115316;27;20014;-68
2023/12/10 02:10:28;;;;;;;;;;;7.40;99.90;;;;;;5106050;27;20006;-69
2023/12/10 02:12:54;;;;;;;;;;;7.40;99.90;;;;;;5105328;28;20317;-69
2023/12/10 02:15:20;;;;;;;;;;;7.50;99.90;;;;;;5105074;28;19912;-68
2023/12/10 02:17:46;;;;;;;;;;;7.40;99.90;;;;;;5105531;28;19908;-68
2023/12/10 02:20:12;;;;;;;;;;;7.40;99.90;;;;;;5104625;28;19916;-69
2023/12/10 02:22:58;;;;;;;;;;;7.50;99.90;;;;;;5105260;27;19915;-69
2023/12/10 02:25:32;;;;;;;;;;;7.50;99.90;;;;;;5105091;28;19915;-69
2023/12/10 02:27:58;;;;;;;;;;;7.50;99.90;;;;;;5101703;28;19912;-69
2023/12/10 02:30:23;;;;;;;;;;;7.50;99.90;;;;;;5104921;28;19923;-69
2023/12/10 02:32:49;;;;;;;;;;;7.50;99.90;;;;;;5109665;28;19912;-69
2023/12/10 02:35:14;;;;;;;;;;;7.50;99.90;;;;;;5112920;27;20642;-69
2023/12/10 02:37:40;;;;;;;;;;;7.50;99.90;;;;;;5104798;28;19912;-68
2023/12/10 02:40:06;;;;;;;;;;;7.50;99.90;;;;;;5104528;28;19915;-69
2023/12/10 02:42:31;;;;;;;;;;;7.40;99.90;;;;;;5104831;28;19916;-69
2023/12/10 02:44:57;;;;;;;;;;;7.40;99.90;;;;;;5104329;28;20504;-68
2023/12/10 02:47:22;;;;;;;;;;;7.40;99.90;;;;;;5104583;28;20010;-69
2023/12/10 02:49:48;;;;;;;;;;;7.40;99.90;;;;;;5104907;28;19912;-69
2023/12/10 02:52:14;;;;;;;;;;;7.40;99.90;;;;;;5115244;28;20280;-69
2023/12/10 02:54:39;;;;;;;;;;;7.50;99.90;;;;;;5105747;28;19934;-69
2023/12/10 02:57:05;;;;;;;;;;;7.40;99.90;;;;;;5104428;28;19912;-69
2023/12/10 02:59:30;;;;;;;;;;;7.40;99.90;;;;;;5104893;28;19919;-69
2023/12/10 03:01:56;;;;;;;;;;;7.40;99.90;;;;;;5104825;28;20007;-69
2023/12/10 03:04:21;;;;;;;;;;;7.40;99.90;;;;;;5113366;27;19911;-68
2023/12/10 03:06:47;;;;;;;;;;;7.40;99.90;;;;;;5103315;28;19911;-69
2023/12/10 03:09:13;;;;;;;;;;;7.40;99.90;;;;;;5102944;28;19912;-68
2023/12/10 03:11:38;;;;;;;;;;;7.40;99.90;;;;;;5105006;28;19911;-68
2023/12/10 03:14:04;;;;;;;;;;;7.40;99.90;;;;;;5104501;28;19919;-69
2023/12/10 03:16:30;;;;;;;;;;;7.40;99.90;;;;;;5114003;27;19914;-69
2023/12/10 03:18:55;;;;;;;;;;;7.40;99.90;;;;;;5120173;27;19911;-69
2023/12/10 03:21:21;;;;;;;;;;;7.40;99.90;;;;;;5118259;27;19988;-69
2023/12/10 03:23:46;;;;;;;;;;;7.40;99.90;;;;;;5123385;27;19912;-68
2023/12/10 03:26:12;;;;;;;;;;;7.40;99.90;;;;;;5128361;27;19912;-68
2023/12/10 03:28:37;;;;;;;;;;;7.40;99.90;;;;;;5118761;27;19916;-68
2023/12/10 03:31:03;;;;;;;;;;;7.40;99.90;;;;;;5108011;28;19920;-68
2023/12/10 03:33:31;;;;;;;;;;;7.40;99.90;;;;;;5108154;28;20351;-68
2023/12/10 03:35:57;;;;;;;;;;;7.40;99.90;;;;;;5107655;28;19916;-68
2023/12/10 03:38:22;;;;;;;;;;;7.40;99.90;;;;;;5108490;27;20638;-69
2023/12/10 03:40:48;;;;;;;;;;;7.40;99.90;;;;;;5116308;27;19912;-69
2023/12/10 03:43:13;;;;;;;;;;;7.40;99.90;;;;;;5108022;27;20060;-69
2023/12/10 03:45:39;;;;;;;;;;;7.30;99.90;;;;;;5107852;28;19908;-69
2023/12/10 03:48:05;;;;;;;;;;;7.30;99.90;;;;;;5107967;28;20368;-69
2023/12/10 03:50:30;;;;;;;;;;;7.30;99.90;;;;;;5107838;28;19927;-69
2023/12/10 03:52:56;;;;;;;;;;;7.30;99.90;;;;;;5107825;27;19915;-69
2023/12/10 03:55:21;;;;;;;;;;;7.30;99.90;;;;;;5106186;28;19919;-69
2023/12/10 03:57:48;;;;;;;;;;;7.30;99.90;;;;;;5107952;28;19954;-69
2023/12/10 04:00:14;;;;;;;;;;;7.30;99.90;;;;;;5107507;28;19908;-69
2023/12/10 04:02:40;;;;;;;;;;;7.30;99.90;;;;;;5108057;28;19934;-69
2023/12/10 04:05:11;;;;;;;;;;;7.30;99.90;;;;;;5107060;28;19908;-69
2023/12/10 04:07:37;;;;;;;;;;;7.30;99.90;;;;;;5107545;27;19919;-69
2023/12/10 04:10:03;;;;;;;;;;;7.30;99.90;;;;;;5105302;28;19911;-69
2023/12/10 04:12:32;;;;;;;;;;;7.20;99.90;;;;;;5105909;28;19952;-69
2023/12/10 04:14:57;;;;;;;;;;;7.30;99.90;;;;;;5106900;28;19916;-68
2023/12/10 04:17:23;;;;;;;;;;;7.30;99.90;;;;;;5107217;28;19984;-69
2023/12/10 04:19:49;;;;;;;;;;;7.30;99.90;;;;;;5107310;28;20751;-69
2023/12/10 04:22:14;;;;;;;;;;;7.20;99.90;;;;;;5106904;28;19912;-68
2023/12/10 04:24:40;;;;;;;;;;;7.20;99.90;;;;;;5107065;28;19911;-68
2023/12/10 04:27:05;;;;;;;;;;;7.20;99.90;;;;;;5105712;28;19912;-69
2023/12/10 04:29:31;;;;;;;;;;;7.20;99.90;;;;;;5103518;28;19968;-69
2023/12/10 04:31:57;;;;;;;;;;;7.20;99.90;;;;;;5115647;27;19958;-69
2023/12/10 04:34:22;;;;;;;;;;;7.20;99.90;;;;;;5114471;27;19965;-69
2023/12/10 04:36:48;;;;;;;;;;;7.20;99.90;;;;;;5123638;27;19918;-68
2023/12/10 04:39:15;;;;;;;;;;;7.20;99.90;;;;;;5114094;27;20000;-69
2023/12/10 04:41:41;;;;;;;;;;;7.20;99.90;;;;;;5107104;28;20380;-69
2023/12/10 04:44:07;;;;;;;;;;;7.10;99.90;;;;;;5106482;28;19918;-68
2023/12/10 04:46:32;;;;;;;;;;;7.20;99.90;;;;;;5106663;28;19912;-68
2023/12/10 04:48:58;;;;;;;;;;;7.20;99.90;;;;;;5106588;27;19912;-69
2023/12/10 04:51:24;;;;;;;;;;;7.10;99.90;;;;;;5104918;28;19908;-68
2023/12/10 04:53:50;;;;;;;;;;;7.10;99.90;;;;;;5114676;27;19916;-68
2023/12/10 04:56:16;;;;;;;;;;;7.20;99.90;;;;;;5105505;28;19916;-68
2023/12/10 04:58:42;;;;;;;;;;;7.10;99.90;;;;;;5113534;27;19920;-68
2023/12/10 05:01:07;;;;;;;;;;;7.10;99.90;;;;;;5114538;27;19949;-68
2023/12/10 05:03:33;;;;;;;;;;;7.10;99.90;;;;;;5112640;27;19911;-69
2023/12/10 05:05:58;;;;;;;;;;;7.10;99.90;;;;;;5124950;27;19912;-69
2023/12/10 05:08:24;;;;;;;;;;;7.10;99.90;;;;;;5114199;27;19908;-68
2023/12/10 05:10:49;;;;;;;;;;;7.10;99.90;;;;;;5106466;27;19912;-69
2023/12/10 05:13:15;;;;;;;;;;;7.10;99.90;;;;;;5104365;28;19949;-69
2023/12/10 05:15:40;;;;;;;;;;;7.10;99.90;;;;;;5106105;28;19998;-68
2023/12/10 05:18:06;;;;;;;;;;;7.10;99.90;;;;;;5106103;28;19947;-68
2023/12/10 05:20:31;;;;;;;;;;;7.10;99.90;;;;;;5114816;27;19919;-69
2023/12/10 05:23:00;;;;;;;;;;;7.10;99.90;;;;;;5123776;27;19911;-68
2023/12/10 05:25:30;;;;;;;;;;;7.10;99.90;;;;;;5121725;27;19950;-68
2023/12/10 05:27:56;;;;;;;;;;;7.10;99.90;;;;;;5113986;27;20341;-69
2023/12/10 05:30:21;;;;;;;;;;;7.00;99.90;;;;;;5106403;27;19926;-68
2023/12/10 05:32:47;;;;;;;;;;;7.10;99.90;;;;;;5106209;28;19912;-69
2023/12/10 05:35:12;;;;;;;;;;;7.00;99.90;;;;;;5105347;28;19923;-68
2023/12/10 05:37:38;;;;;;;;;;;7.00;99.90;;;;;;5106210;28;19957;-69
2023/12/10 05:40:04;;;;;;;;;;;7.00;99.90;;;;;;5105808;28;19919;-68
2023/12/10 05:42:29;;;;;;;;;;;7.10;99.90;;;;;;5106059;27;19953;-68
2023/12/10 05:44:55;;;;;;;;;;;7.00;99.90;;;;;;5105276;28;19951;-69
2023/12/10 05:47:21;;;;;;;;;;;7.00;99.90;;;;;;5116814;27;19929;-69
2023/12/10 05:49:46;;;;;;;;;;;7.00;99.90;;;;;;5126212;27;19918;-69
2023/12/10 05:52:12;;;;;;;;;;;7.00;99.90;;;;;;5118642;27;19922;-69
2023/12/10 05:54:38;;;;;;;;;;;7.00;99.90;;;;;;5126131;27;19922;-68
2023/12/10 05:57:04;;;;;;;;;;;7.00;99.90;;;;;;5122634;27;19926;-68
2023/12/10 05:59:29;;;;;;;;;;;7.00;99.90;;;;;;5105503;28;20380;-69
2023/12/10 06:01:55;;;;;;;;;;;7.00;99.90;;;;;;5105491;28;19912;-69
2023/12/10 06:04:21;;;;;;;;;;;7.00;99.90;;;;;;5103872;28;19912;-68
2023/12/10 06:06:47;;;;;;;;;;;7.00;99.90;;;;;;5105530;28;19992;-69
2023/12/10 06:09:14;;;;;;;;;;;7.00;99.90;;;;;;5105272;28;19991;-69
2023/12/10 06:11:40;;;;;;;;;;;7.00;99.90;;;;;;5114348;27;19915;-68
2023/12/10 06:14:05;;;;;;;;;;;7.00;99.90;;;;;;5125245;27;20302;-68
2023/12/10 06:16:31;;;;;;;;;;;7.00;99.90;;;;;;5125478;27;19980;-68
2023/12/10 06:18:56;;;;;;;;;;;7.00;99.90;;;;;;5125508;27;19912;-68
2023/12/10 06:21:22;;;;;;;;;;;7.00;99.90;;;;;;5114841;27;20675;-68
2023/12/10 06:23:47;;;;;;;;;;;7.00;99.90;;;;;;5105310;28;19916;-68
2023/12/10 06:26:13;;;;;;;;;;;7.00;99.90;;;;;;5104652;28;20272;-69
2023/12/10 06:28:39;;;;;;;;;;;7.00;99.90;;;;;;5101401;28;19916;-69
2023/12/10 06:31:04;;;;;;;;;;;7.00;99.90;;;;;;5104588;28;19911;-69
2023/12/10 06:33:30;;;;;;;;;;;7.00;99.90;;;;;;5105153;28;20313;-68
2023/12/10 06:35:55;;;;;;;;;;;7.00;99.90;;;;;;5105070;28;20628;-69
2023/12/10 06:38:21;;;;;;;;;;;7.00;99.90;;;;;;5121859;27;19928;-69
2023/12/10 06:40:46;;;;;;;;;;;7.00;99.90;;;;;;5112364;28;19919;-68
2023/12/10 06:43:12;;;;;;;;;;;7.00;99.90;;;;;;5122349;27;19911;-68
2023/12/10 06:45:37;;;;;;;;;;;7.00;99.90;;;;;;5113007;28;19912;-69
2023/12/10 06:48:03;;;;;;;;;;;7.00;99.90;;;;;;5104653;28;19918;-68
2023/12/10 06:50:30;;;;;;;;;;;7.00;99.90;;;;;;5105617;28;19919;-69
2023/12/10 06:52:56;;;;;;;;;;;7.00;99.90;;;;;;5108729;28;19912;-69
2023/12/10 06:55:21;;;;;;;;;;;7.00;99.90;;;;;;5107278;28;19919;-68
2023/12/10 06:57:47;;;;;;;;;;;7.00;99.90;;;;;;5109145;28;20028;-69
2023/12/10 07:00:13;;;;;;;;;;;7.00;99.90;;;;;;5118409;27;20064;-69
2023/12/10 07:02:39;;;;;;;;;;;7.10;99.90;;;;;;5129358;27;20360;-69
2023/12/10 07:05:05;;;;;;;;;;;7.00;99.90;;;;;;5125104;27;19947;-69
2023/12/10 07:07:31;;;;;;;;;;;7.00;99.90;;;;;;5129078;27;19990;-69
2023/12/10 07:09:57;;;;;;;;;;;7.10;99.90;;;;;;5118198;27;19991;-69
2023/12/10 07:12:23;;;;;;;;;;;7.00;99.90;;;;;;5108845;28;19935;-68
2023/12/10 07:14:48;;;;;;;;;;;7.00;99.90;;;;;;5108225;28;19955;-69
2023/12/10 07:17:14;;;;;;;;;;;7.00;99.90;;;;;;5107934;28;19923;-69
2023/12/10 07:19:40;;;;;;;;;;;7.00;99.90;;;;;;5107931;28;19912;-69
2023/12/10 07:22:06;;;;;;;;;;;7.10;99.90;;;;;;5107915;27;20324;-69
2023/12/10 07:24:31;;;;;;;;;;;7.10;99.90;;;;;;5123385;27;19923;-69
2023/12/10 07:26:57;;;;;;;;;;;7.10;99.90;;;;;;5124591;27;20625;-68
2023/12/10 07:29:23;;;;;;;;;;;7.10;99.90;;;;;;5104120;27;20026;-68
2023/12/10 07:31:48;;;;;;;;;;;7.10;99.90;;;;;;5124156;27;19911;-69
2023/12/10 07:34:14;;;;;;;;;;;7.10;99.90;;;;;;5116842;27;20697;-69
2023/12/10 07:36:39;;;;;;;;;;;7.10;99.90;;;;;;5107639;28;19965;-69
2023/12/10 07:39:05;;;;;;;;;;;7.10;99.90;;;;;;5107364;28;20011;-68
2023/12/10 07:41:30;;;;;;;;;;;7.10;99.90;;;;;;5107353;28;19950;-68
2023/12/10 07:43:56;;;;;;;;;;;7.10;99.90;;;;;;5107200;28;20489;-68
2023/12/10 07:46:21;;;;;;;;;;;7.10;99.90;;;;;;5111484;27;19921;-68
2023/12/10 07:48:47;;;;;;;;;;;7.10;99.90;;;;;;5127992;27;19992;-69
2023/12/10 07:51:12;;;;;;;;;;;7.10;99.90;;;;;;5109650;27;19912;-69
2023/12/10 07:53:38;;;;;;;;;;;7.10;99.90;;;;;;5115974;27;20376;-69
2023/12/10 07:56:04;;;;;;;;;;;7.10;99.90;;;;;;5115405;27;19938;-68
2023/12/10 07:58:29;;;;;;;;;;;7.10;99.90;;;;;;5107325;28;20357;-68
2023/12/10 08:00:55;;;;;;;;;;;7.20;99.90;;;;;;5106979;28;19912;-69
2023/12/10 08:03:21;;;;;;;;;;;7.20;99.90;;;;;;5106413;28;19912;-68
2023/12/10 08:05:47;;;;;;;;;;;7.10;99.90;;;;;;5106817;28;19993;-69
2023/12/10 08:08:12;;;;;;;;;;;7.20;99.90;;;;;;5105380;28;20681;-69
2023/12/10 08:10:38;;;;;;;;;;;7.10;99.90;;;;;;5106824;28;20366;-69
2023/12/10 08:13:03;;;;;;;;;;;7.20;99.90;;;;;;5106999;28;19999;-69
2023/12/10 08:15:29;;;;;;;;;;;7.20;99.90;;;;;;5106831;28;19960;-69
2023/12/10 08:17:55;;;;;;;;;;;7.20;99.90;;;;;;5123774;27;19918;-69
2023/12/10 08:20:20;;;;;;;;;;;7.20;99.90;;;;;;5106795;27;20549;-69
2023/12/10 08:22:48;;;;;;;;;;;7.20;99.90;;;;;;5106440;27;19939;-68
2023/12/10 08:25:13;;;;;;;;;;;7.20;99.90;;;;;;5106216;28;19912;-69
2023/12/10 08:27:39;;;;;;;;;;;7.20;99.90;;;;;;5105057;28;20214;-68
2023/12/10 08:30:04;;;;;;;;;;;7.20;99.90;;;;;;5104255;28;19920;-69
2023/12/10 08:32:30;;;;;;;;;;;7.20;99.90;;;;;;5106876;28;19916;-68
2023/12/10 08:34:55;;;;;;;;;;;7.20;99.90;;;;;;5114709;27;20376;-69
2023/12/10 08:37:21;;;;;;;;;;;7.30;99.90;;;;;;5118773;27;20564;-68
2023/12/10 08:39:49;;;;;;;;;;;7.30;99.90;;;;;;5127005;27;19912;-68
2023/12/10 08:42:16;;;;;;;;;;;7.30;99.90;;;;;;5126278;27;19951;-68
2023/12/10 08:44:41;;;;;;;;;;;7.20;99.90;;;;;;5119923;27;19923;-69
2023/12/10 08:47:07;;;;;;;;;;;7.30;99.90;;;;;;5112713;27;19912;-69
2023/12/10 08:49:33;;;;;;;;;;;7.30;99.90;;;;;;5106407;28;19911;-68
2023/12/10 08:51:58;;;;;;;;;;;7.30;99.90;;;;;;5106421;27;19912;-68
2023/12/10 08:54:24;;;;;;;;;;;7.30;99.90;;;;;;5114013;27;20010;-68
2023/12/10 08:56:49;;;;;;;;;;;7.30;99.90;;;;;;5105828;28;19911;-68
2023/12/10 08:59:15;;;;;;;;;;;7.30;99.90;;;;;;5103485;28;19929;-68
2023/12/10 09:01:41;;;;;;;;;;;7.30;99.90;;;;;;5102946;27;20002;-68
2023/12/10 09:04:06;;;;;;;;;;;7.30;99.90;;;;;;5113691;27;20186;-69
2023/12/10 09:06:32;;;;;;;;;;;7.30;99.90;;;;;;5109947;27;19915;-68
2023/12/10 09:08:58;;;;;;;;;;;7.30;99.90;;;;;;5114595;27;20467;-69
2023/12/10 09:11:23;;;;;;;;;;;7.30;99.90;;;;;;5107201;27;19962;-68
2023/12/10 09:13:49;;;;;;;;;;;7.30;99.90;;;;;;5112756;27;19923;-68
2023/12/10 09:16:16;;;;;;;;;;;7.30;99.90;;;;;;5118575;27;19918;-68
2023/12/10 09:18:43;;;;;;;;;;;7.30;99.90;;;;;;5114639;27;19969;-68
2023/12/10 09:21:09;;;;;;;;;;;7.40;99.90;;;;;;5113209;27;20368;-68
2023/12/10 09:23:37;;;;;;;;;;;7.30;99.90;;;;;;5091359;28;20005;-69
2023/12/10 09:26:03;;;;;;;;;;;7.40;99.90;;;;;;5100810;28;20575;-68
2023/12/10 09:28:28;;;;;;;;;;;7.40;99.90;;;;;;5088920;28;19953;-68
2023/12/10 09:30:54;;;;;;;;;;;7.40;99.90;;;;;;5100690;28;19912;-69
2023/12/10 09:33:19;;;;;;;;;;;7.40;99.90;;;;;;5112657;27;19992;-68
2023/12/10 09:35:45;;;;;;;;;;;7.40;99.90;;;;;;5104467;28;19912;-68
2023/12/10 09:38:10;;;;;;;;;;;7.40;99.90;;;;;;5104648;28;20032;-68
2023/12/10 09:40:36;;;;;;;;;;;7.40;99.90;;;;;;5118738;27;19977;-69
2023/12/10 09:43:01;;;;;;;;;;;7.40;99.90;;;;;;5115288;27;19919;-68
2023/12/10 09:45:28;;;;;;;;;;;7.40;99.90;;;;;;5117261;27;19912;-69
2023/12/10 09:47:53;;;;;;;;;;;7.40;99.90;;;;;;5117317;27;19919;-69
2023/12/10 09:50:20;;;;;;;;;;;7.40;99.90;;;;;;5121156;27;19908;-68
2023/12/10 09:52:45;;;;;;;;;;;7.40;99.90;;;;;;5104382;28;19912;-68
2023/12/10 09:55:11;;;;;;;;;;;7.40;99.90;;;;;;5110277;27;19961;-68
2023/12/10 09:57:36;;;;;;;;;;;7.40;99.90;;;;;;5106874;27;19926;-68
2023/12/10 10:00:03;;;;;;;;;;;7.50;99.90;;;;;;5109513;27;19938;-68
2023/12/10 10:02:35;;;;;;;;;;;7.50;99.90;;;;;;5116125;27;19938;-68
2023/12/10 10:05:05;;;;;;;;;;;7.50;99.90;;;;;;5092434;27;19912;-68
2023/12/10 10:07:32;;;;;;;;;;;7.50;99.90;;;;;;5099843;28;20430;-69
2023/12/10 10:09:57;;;;;;;;;;;7.50;99.90;;;;;;5109315;27;19919;-69
2023/12/10 10:12:29;;;;;;;;;;;7.50;99.90;;;;;;5104859;28;19915;-68
2023/12/10 10:14:56;;;;;;;;;;;7.50;99.90;;;;;;5103969;28;19919;-69
2023/12/10 10:17:31;;;;;;;;;;;7.50;99.90;;;;;;5092405;27;19920;-68
2023/12/10 10:19:57;;;;;;;;;;;7.50;99.90;;;;;;5083749;28;19912;-69
2023/12/10 10:22:24;;;;;;;;;;;7.50;99.90;;;;;;5105416;27;19915;-68
2023/12/10 10:24:53;;;;;;;;;;;7.50;99.90;;;;;;5105761;28;19918;-68
2023/12/10 10:27:19;;;;;;;;;;;7.50;99.90;;;;;;5104899;27;19916;-69
2023/12/10 10:29:45;;;;;;;;;;;7.50;99.90;;;;;;5110961;27;19919;-68
2023/12/10 10:32:15;;;;;;;;;;;7.60;99.90;;;;;;5097906;28;19918;-68
2023/12/10 10:34:50;;;;;;;;;;;7.60;99.90;;;;;;5106549;28;19919;-69
2023/12/10 10:37:16;;;;;;;;;;;7.60;99.90;;;;;;5118618;27;20032;-68
2023/12/10 10:39:42;;;;;;;;;;;7.60;99.90;;;;;;5120010;27;20337;-68
2023/12/10 10:42:09;;;;;;;;;;;7.60;99.90;;;;;;5126512;27;19954;-68
2023/12/10 10:44:35;;;;;;;;;;;7.60;99.90;;;;;;5102328;27;20541;-69
2023/12/10 10:47:02;;;;;;;;;;;7.60;99.90;;;;;;5120615;27;19911;-69
2023/12/10 10:49:28;;;;;;;;;;;7.60;99.90;;;;;;5091624;28;19908;-69
2023/12/10 10:51:54;;;;;;;;;;;7.60;99.90;;;;;;5106363;28;20206;-69
2023/12/10 10:54:20;;;;;;;;;;;7.60;99.90;;;;;;5102066;27;19979;-69
2023/12/10 10:56:45;;;;;;;;;;;7.60;99.90;;;;;;5119317;27;19911;-69
2023/12/10 10:59:27;;;;;;;;;;;7.60;99.90;;;;;;5107750;27;19916;-69
2023/12/10 11:01:53;;;;;;;;;;;7.60;99.90;;;;;;5107615;27;19912;-69
2023/12/10 11:04:20;;;;;;;;;;;7.60;99.90;;;;;;5107046;27;19919;-68
2023/12/10 11:06:47;;;;;;;;;;;7.60;99.90;;;;;;5106899;28;19919;-69
2023/12/10 11:09:12;;;;;;;;;;;7.60;99.90;;;;;;5104707;28;19912;-68
2023/12/10 11:11:39;;;;;;;;;;;7.70;99.90;;;;;;5091175;28;19958;-68
2023/12/10 11:14:09;;;;;;;;;;;7.70;99.90;;;;;;5098435;28;19916;-69
2023/12/10 11:16:35;;;;;;;;;;;7.70;99.90;;;;;;5101102;27;20127;-68
2023/12/10 11:19:01;;;;;;;;;;;7.80;99.90;;;;;;5108885;27;19912;-69
2023/12/10 11:21:26;;;;;;;;;;;7.80;99.90;;;;;;5103419;27;19923;-68
2023/12/10 11:23:52;;;;;;;;;;;7.90;99.90;;;;;;5106264;28;19912;-69
2023/12/10 11:26:17;;;;;;;;;;;7.90;99.90;;;;;;5106785;28;19916;-69
2023/12/10 11:28:43;;;;;;;;;;;7.90;99.90;;;;;;5117790;27;20316;-69
2023/12/10 11:31:09;;;;;;;;;;;8.00;99.90;;;;;;5118390;27;19947;-69
2023/12/10 11:33:38;;;;;;;;;;;8.00;99.90;;;;;;5114136;27;19911;-69
2023/12/10 11:36:04;;;;;;;;;;;8.00;99.90;;;;;;5104373;27;19939;-69
2023/12/10 11:38:30;;;;;;;;;;;8.00;99.90;;;;;;5097383;28;19920;-69
2023/12/10 11:40:56;;;;;;;;;;;8.10;99.90;;;;;;5101841;28;19912;-69
2023/12/10 11:43:21;;;;;;;;;;;8.10;99.90;;;;;;5106800;28;19965;-68
2023/12/10 11:45:47;;;;;;;;;;;8.10;99.90;;;;;;5113936;27;19911;-69
2023/12/10 11:48:12;;;;;;;;;;;8.10;99.90;;;;;;5108482;27;20031;-69
2023/12/10 11:50:38;;;;;;;;;;;8.20;99.90;;;;;;5115589;27;19911;-69
2023/12/10 11:53:04;;;;;;;;;;;8.20;99.90;;;;;;5106541;28;19911;-69
2023/12/10 11:55:30;;;;;;;;;;;8.20;99.90;;;;;;5107456;27;19934;-69
2023/12/10 11:57:56;;;;;;;;;;;8.20;99.90;;;;;;5110321;27;19922;-69
2023/12/10 12:00:22;;;;;;;;;;;8.20;99.90;;;;;;5107983;27;19950;-69
2023/12/10 12:02:48;;;;;;;;;;;8.30;99.90;;;;;;5107020;27;19931;-69
2023/12/10 12:05:14;;;;;;;;;;;8.30;99.90;;;;;;5112951;27;19991;-69
2023/12/10 12:07:43;;;;;;;;;;;8.30;99.90;;;;;;5114911;27;20015;-69
2023/12/10 12:10:09;;;;;;;;;;;8.30;99.90;;;;;;5104722;27;19912;-69
2023/12/10 12:12:39;;;;;;;;;;;8.30;99.90;;;;;;5113421;27;20024;-69
2023/12/10 12:15:05;;;;;;;;;;;8.30;99.90;;;;;;5106792;27;20014;-69
2023/12/10 12:17:30;;;;;;;;;;;8.30;99.90;;;;;;5109328;27;20034;-69
2023/12/10 12:20:11;;;;;;;;;;;8.30;99.90;;;;;;5102153;27;20597;-69
2023/12/10 12:22:36;;;;;;;;;;;8.30;99.90;;;;;;5103186;27;19908;-69
2023/12/10 12:25:03;;;;;;;;;;;8.30;99.90;;;;;;5117208;27;20322;-69
2023/12/10 12:27:28;;;;;;;;;;;8.30;99.90;;;;;;5118915;27;19942;-69
2023/12/10 12:29:54;;;;;;;;;;;8.30;99.90;;;;;;5105701;27;20348;-69
2023/12/10 12:32:19;;;;;;;;;;;8.30;99.90;;;;;;5109410;27;20431;-69
2023/12/10 12:34:45;;;;;;;;;;;8.30;99.90;;;;;;5119545;27;19923;-68
2023/12/10 12:37:10;;;;;;;;;;;8.30;99.90;;;;;;5114210;27;19912;-69
2023/12/10 12:39:36;;;;;;;;;;;8.30;99.90;;;;;;5113927;27;19933;-69
2023/12/10 12:42:02;;;;;;;;;;;8.30;99.90;;;;;;5117751;27;19947;-69
2023/12/10 12:44:28;;;;;;;;;;;8.30;99.90;;;;;;5121990;27;20004;-69
2023/12/10 12:46:53;;;;;;;;;;;8.30;99.90;;;;;;5112845;27;19911;-69
2023/12/10 12:49:19;;;;;;;;;;;8.40;99.90;;;;;;5114371;27;19938;-69
2023/12/10 12:51:45;;;;;;;;;;;8.40;99.90;;;;;;5105828;28;19923;-69
2023/12/10 12:54:11;;;;;;;;;;;8.40;99.90;;;;;;5105336;28;20389;-69
2023/12/10 12:56:36;;;;;;;;;;;8.40;99.90;;;;;;5110813;27;19911;-68
2023/12/10 12:59:02;;;;;;;;;;;8.40;99.90;;;;;;5116683;27;19916;-69
2023/12/10 13:01:27;;;;;;;;;;;8.40;99.90;;;;;;5097830;28;19976;-69
2023/12/10 13:03:53;;;;;;;;;;;8.40;99.90;;;;;;5105044;27;20359;-68
2023/12/10 13:06:19;;;;;;;;;;;8.40;99.90;;;;;;5125473;27;20596;-69
2023/12/10 13:08:45;;;;;;;;;;;8.40;99.90;;;;;;5124019;27;19918;-69
2023/12/10 13:11:11;;;;;;;;;;;8.40;99.90;;;;;;5120100;27;19965;-69
2023/12/10 13:13:36;;;;;;;;;;;8.40;99.90;;;;;;5111490;27;20604;-69
2023/12/10 13:16:04;;;;;;;;;;;8.40;99.90;;;;;;5099859;27;20023;-69
2023/12/10 13:18:30;;;;;;;;;;;8.40;99.90;;;;;;5121504;27;19926;-69
2023/12/10 13:20:55;;;;;;;;;;;8.40;99.90;;;;;;5106342;27;19912;-69
2023/12/10 13:23:21;;;;;;;;;;;8.40;99.90;;;;;;5125141;27;19912;-69
2023/12/10 13:25:47;;;;;;;;;;;8.40;99.90;;;;;;5110338;27;19911;-68
2023/12/10 13:28:13;;;;;;;;;;;8.40;99.90;;;;;;5104568;27;19919;-69
2023/12/10 13:30:38;;;;;;;;;;;8.40;99.90;;;;;;5124888;27;19931;-69
2023/12/10 13:33:04;;;;;;;;;;;8.40;99.90;;;;;;5098410;27;19911;-69
2023/12/10 13:35:29;;;;;;;;;;;8.40;99.90;;;;;;5101564;27;19950;-69
2023/12/10 13:37:57;;;;;;;;;;;8.40;99.90;;;;;;5116466;27;20466;-69
2023/12/10 13:40:22;;;;;;;;;;;8.40;99.90;;;;;;5099088;27;19915;-69
2023/12/10 13:42:48;;;;;;;;;;;8.30;99.90;;;;;;5111741;27;20038;-69
2023/12/10 13:45:13;;;;;;;;;;;8.40;99.90;;;;;;5116148;27;20623;-68
2023/12/10 13:47:40;;;;;;;;;;;8.40;99.90;;;;;;5119536;27;19912;-69
2023/12/10 13:50:06;;;;;;;;;;;8.40;99.90;;;;;;5112744;27;19939;-69
2023/12/10 13:52:31;;;;;;;;;;;8.40;99.90;;;;;;5100263;28;20412;-69
2023/12/10 13:54:57;;;;;;;;;;;8.40;99.90;;;;;;5117144;27;19912;-69
2023/12/10 13:57:22;;;;;;;;;;;8.40;99.90;;;;;;5117803;27;19916;-69
2023/12/10 13:59:48;;;;;;;;;;;8.40;99.90;;;;;;5102773;28;19919;-68
2023/12/10 14:02:14;;;;;;;;;;;8.40;99.90;;;;;;5121133;27;19918;-69
2023/12/10 14:04:39;;;;;;;;;;;8.40;99.90;;;;;;5118600;27;19907;-69
2023/12/10 14:07:06;;;;;;;;;;;8.30;99.90;;;;;;5103905;27;19918;-68
2023/12/10 14:09:32;;;;;;;;;;;8.40;99.90;;;;;;5111162;27;19911;-69
2023/12/10 14:11:58;;;;;;;;;;;8.40;99.90;;;;;;5116591;27;20361;-69
2023/12/10 14:14:24;;;;;;;;;;;8.40;99.90;;;;;;5109118;27;19977;-69
2023/12/10 14:16:49;;;;;;;;;;;8.40;99.90;;;;;;5090989;28;19908;-69
2023/12/10 14:19:15;;;;;;;;;;;8.40;99.90;;;;;;5104418;28;19912;-69
2023/12/10 14:21:40;;;;;;;;;;;8.40;99.90;;;;;;5115448;27;19919;-69
2023/12/10 14:24:07;;;;;;;;;;;8.40;99.90;;;;;;5115973;27;19911;-69